createdAt,value
2018-01-30T00:01:31.731Z,6.17
2018-01-30T00:04:01.085Z,6.13
2018-01-30T00:06:31.078Z,6.31
2018-01-30T00:09:00.409Z,6.15
2018-01-30T00:11:29.826Z,6.13
2018-01-30T00:13:59.473Z,6.18
2018-01-30T00:16:28.869Z,6.07
2018-01-30T00:18:58.190Z,6.16
2018-01-30T00:21:27.817Z,6.03
2018-01-30T00:23:57.123Z,6.09
2018-01-30T00:26:26.474Z,5.97
2018-01-30T00:28:56.274Z,5.78
2018-01-30T00:31:25.649Z,5.93
2018-01-30T00:33:54.972Z,5.92
2018-01-30T00:36:24.303Z,5.87
2018-01-30T00:38:53.970Z,6.01
2018-01-30T00:41:23.270Z,5.93
2018-01-30T00:43:52.609Z,5.93
2018-01-30T00:46:21.943Z,5.88
2018-01-30T00:48:51.280Z,5.84
2018-01-30T00:51:20.650Z,5.83
2018-01-30T00:53:50.126Z,5.77
2018-01-30T00:56:19.446Z,5.74
2018-01-30T00:58:48.802Z,5.69
2018-01-30T01:01:18.114Z,5.76
2018-01-30T01:03:47.690Z,5.79
2018-01-30T01:06:17.321Z,5.81
2018-01-30T01:08:46.681Z,5.76
2018-01-30T01:11:15.971Z,5.70
2018-01-30T01:13:45.357Z,5.65
2018-01-30T01:16:14.968Z,5.49
2018-01-30T01:18:44.643Z,5.58
2018-01-30T01:21:14.059Z,5.40
2018-01-30T01:23:43.506Z,5.67
2018-01-30T01:26:13.144Z,5.57
2018-01-30T01:28:43.732Z,5.64
2018-01-30T01:31:13.061Z,5.51
2018-01-30T01:33:42.735Z,5.69
2018-01-30T01:36:12.046Z,5.71
2018-01-30T01:38:41.420Z,5.63
2018-01-30T01:41:11.028Z,5.51
2018-01-30T01:43:40.359Z,5.57
2018-01-30T01:46:09.689Z,5.67
2018-01-30T01:48:39.574Z,5.68
2018-01-30T01:51:09.026Z,5.73
2018-01-30T01:53:38.698Z,5.61
2018-01-30T01:56:08.079Z,5.69
2018-01-30T01:58:37.392Z,5.69
2018-01-30T02:01:06.862Z,5.50
2018-01-30T02:03:36.474Z,5.54
2018-01-30T02:06:05.829Z,5.52
2018-01-30T02:08:35.151Z,5.80
2018-01-30T02:11:04.538Z,5.92
2018-01-30T02:13:33.899Z,5.58
2018-01-30T02:16:03.304Z,5.59
2018-01-30T02:18:32.936Z,5.51
2018-01-30T02:21:02.371Z,5.23
2018-01-30T02:23:31.681Z,5.23
2018-01-30T02:26:01.002Z,5.24
2018-01-30T02:28:30.581Z,5.29
2018-01-30T02:30:59.891Z,5.27
2018-01-30T02:33:29.211Z,5.30
2018-01-30T02:35:58.502Z,5.31
2018-01-30T02:38:28.060Z,5.26
2018-01-30T02:40:57.711Z,5.14
2018-01-30T02:43:27.038Z,5.12
2018-01-30T02:45:56.371Z,5.03
2018-01-30T02:48:25.758Z,5.16
2018-01-30T02:50:55.134Z,5.14
2018-01-30T02:53:24.448Z,5.18
2018-01-30T02:55:54.602Z,5.12
2018-01-30T02:58:24.162Z,5.18
2018-01-30T03:00:53.494Z,5.22
2018-01-30T03:03:23.303Z,4.92
2018-01-30T03:05:52.638Z,4.89
2018-01-30T03:08:21.946Z,4.86
2018-01-30T03:10:51.294Z,4.86
2018-01-30T03:13:20.598Z,4.93
2018-01-30T03:15:49.933Z,4.85
2018-01-30T03:18:19.510Z,4.79
2018-01-30T03:20:48.818Z,4.77
2018-01-30T03:23:18.171Z,4.89
2018-01-30T03:25:47.475Z,4.82
2018-01-30T03:28:16.851Z,4.83
2018-01-30T03:30:46.167Z,4.75
2018-01-30T03:33:15.634Z,4.76
2018-01-30T03:35:44.943Z,4.86
2018-01-30T03:38:14.257Z,5.06
2018-01-30T03:40:43.602Z,4.79
2018-01-30T03:43:13.529Z,4.72
2018-01-30T03:45:42.847Z,4.59
2018-01-30T03:48:12.171Z,4.64
2018-01-30T03:50:45.863Z,4.75
2018-01-30T03:53:15.187Z,4.86
2018-01-30T03:55:44.487Z,4.71
2018-01-30T03:58:13.863Z,4.70
2018-01-30T04:00:43.264Z,4.69
2018-01-30T04:03:12.619Z,4.79
2018-01-30T04:05:41.932Z,4.97
2018-01-30T04:08:11.263Z,4.89
2018-01-30T04:10:41.267Z,4.95
2018-01-30T04:13:10.659Z,4.84
2018-01-30T04:15:40.039Z,4.92
2018-01-30T04:18:09.643Z,4.99
2018-01-30T04:20:38.992Z,5.00
2018-01-30T04:23:08.692Z,5.27
2018-01-30T04:25:38.277Z,4.89
2018-01-30T04:28:07.727Z,5.21
2018-01-30T04:30:37.191Z,5.16
2018-01-30T04:33:06.811Z,4.77
2018-01-30T04:35:36.172Z,4.80
2018-01-30T04:38:05.530Z,4.67
2018-01-30T04:40:34.857Z,4.75
2018-01-30T04:43:04.510Z,4.73
2018-01-30T04:45:33.886Z,4.71
2018-01-30T04:48:03.238Z,4.55
2018-01-30T04:50:32.896Z,4.61
2018-01-30T04:53:02.227Z,4.64
2018-01-30T04:55:31.579Z,4.39
2018-01-30T04:58:01.032Z,4.49
2018-01-30T05:00:30.512Z,4.73
2018-01-30T05:02:59.793Z,4.70
2018-01-30T05:05:29.537Z,4.55
2018-01-30T05:07:58.870Z,4.68
2018-01-30T05:10:28.182Z,4.66
2018-01-30T05:12:57.736Z,4.91
2018-01-30T05:15:27.408Z,4.50
2018-01-30T05:17:56.820Z,4.47
2018-01-30T05:20:26.126Z,4.51
2018-01-30T05:22:55.757Z,4.29
2018-01-30T05:25:25.318Z,4.28
2018-01-30T05:27:54.829Z,4.19
2018-01-30T05:30:24.482Z,4.21
2018-01-30T05:32:53.764Z,4.40
2018-01-30T05:35:23.136Z,4.44
2018-01-30T05:37:52.535Z,4.32
2018-01-30T05:40:22.192Z,4.50
2018-01-30T05:42:51.552Z,4.41
2018-01-30T05:45:21.410Z,4.43
2018-01-30T05:47:50.860Z,4.27
2018-01-30T05:50:20.200Z,4.41
2018-01-30T05:52:49.622Z,4.31
2018-01-30T05:55:19.455Z,4.26
2018-01-30T05:57:48.749Z,4.14
2018-01-30T06:00:18.205Z,4.10
2018-01-30T06:02:47.812Z,4.02
2018-01-30T06:05:17.793Z,4.06
2018-01-30T06:07:48.138Z,4.16
2018-01-30T06:10:17.595Z,4.09
2018-01-30T06:12:47.467Z,4.02
2018-01-30T06:15:16.920Z,4.07
2018-01-30T06:17:46.225Z,3.81
2018-01-30T06:20:15.566Z,3.95
2018-01-30T06:22:45.134Z,3.98
2018-01-30T06:25:14.495Z,3.94
2018-01-30T06:27:44.399Z,3.95
2018-01-30T06:30:14.654Z,3.96
2018-01-30T06:32:47.472Z,3.79
2018-01-30T06:35:17.859Z,3.73
2018-01-30T06:37:47.158Z,3.91
2018-01-30T06:40:16.617Z,3.82
2018-01-30T06:42:46.616Z,3.56
2018-01-30T06:45:15.923Z,3.56
2018-01-30T06:47:46.391Z,3.98
2018-01-30T06:50:15.732Z,3.78
2018-01-30T06:52:45.345Z,3.67
2018-01-30T06:55:14.723Z,3.69
2018-01-30T06:57:44.113Z,3.75
2018-01-30T07:00:14.600Z,3.78
2018-01-30T07:02:44.031Z,3.62
2018-01-30T07:05:13.335Z,3.72
2018-01-30T07:07:42.713Z,3.59
2018-01-30T07:10:12.330Z,3.58
2018-01-30T07:12:41.712Z,3.49
2018-01-30T07:15:11.027Z,3.45
2018-01-30T07:17:40.662Z,3.49
2018-01-30T07:20:10.022Z,3.39
2018-01-30T07:22:39.581Z,3.48
2018-01-30T07:25:08.911Z,3.53
2018-01-30T07:27:38.259Z,3.48
2018-01-30T07:30:07.613Z,3.59
2018-01-30T07:32:37.266Z,3.83
2018-01-30T07:35:06.639Z,3.91
2018-01-30T07:37:36.022Z,3.99
2018-01-30T07:40:04.871Z,3.75
2018-01-30T07:42:34.209Z,4.03
2018-01-30T07:45:03.527Z,3.72
2018-01-30T07:47:32.879Z,3.86
2018-01-30T07:50:02.298Z,3.90
2018-01-30T07:52:31.630Z,4.06
2018-01-30T07:55:01.003Z,3.83
2018-01-30T07:57:30.593Z,3.90
2018-01-30T07:59:59.927Z,3.83
2018-01-30T08:02:29.266Z,3.76
2018-01-30T08:04:58.774Z,3.54
2018-01-30T08:07:28.113Z,3.71
2018-01-30T08:09:57.482Z,3.67
2018-01-30T08:12:26.875Z,3.81
2018-01-30T08:14:56.276Z,3.70
2018-01-30T08:17:25.777Z,3.88
2018-01-30T08:19:55.091Z,3.75
2018-01-30T08:22:24.376Z,3.75
2018-01-30T08:24:53.960Z,3.92
2018-01-30T08:27:23.355Z,3.87
2018-01-30T08:29:52.671Z,3.92
2018-01-30T08:32:22.082Z,3.98
2018-01-30T08:34:51.487Z,4.27
2018-01-30T08:37:20.863Z,4.42
2018-01-30T08:39:50.188Z,4.42
2018-01-30T08:42:19.629Z,4.39
2018-01-30T08:44:49.058Z,4.50
2018-01-30T08:47:18.402Z,4.53
2018-01-30T08:49:48.021Z,4.55
2018-01-30T08:52:17.307Z,4.69
2018-01-30T08:54:46.631Z,4.77
2018-01-30T08:57:16.063Z,4.88
2018-01-30T08:59:45.734Z,4.74
2018-01-30T09:02:15.054Z,4.84
2018-01-30T09:04:44.748Z,4.95
2018-01-30T09:07:14.037Z,5.02
2018-01-30T09:09:43.671Z,4.83
2018-01-30T09:12:12.978Z,4.95
2018-01-30T09:14:42.286Z,4.88
2018-01-30T09:17:12.243Z,5.00
2018-01-30T09:19:41.864Z,5.13
2018-01-30T09:22:11.214Z,5.28
2018-01-30T09:24:40.579Z,5.31
2018-01-30T09:27:10.106Z,5.52
2018-01-30T09:29:39.710Z,5.42
2018-01-30T09:32:09.031Z,5.51
2018-01-30T09:34:38.391Z,5.57
2018-01-30T09:37:08.019Z,5.35
2018-01-30T09:39:37.414Z,5.73
2018-01-30T09:42:06.813Z,5.59
2018-01-30T09:44:36.124Z,5.84
2018-01-30T09:47:05.748Z,5.90
2018-01-30T09:49:35.070Z,5.50
2018-01-30T09:52:04.483Z,5.59
2018-01-30T09:54:33.840Z,5.86
2018-01-30T09:57:03.556Z,5.93
2018-01-30T09:59:32.870Z,5.89
2018-01-30T10:02:02.235Z,5.83
2018-01-30T10:04:31.551Z,5.84
2018-01-30T10:07:00.851Z,5.66
2018-01-30T10:09:30.146Z,5.93
2018-01-30T10:11:59.748Z,5.88
2018-01-30T10:14:29.062Z,5.83
2018-01-30T10:16:58.452Z,6.00
2018-01-30T10:19:28.336Z,6.24
2018-01-30T10:21:57.710Z,6.04
2018-01-30T10:24:27.058Z,6.11
2018-01-30T10:26:56.742Z,5.79
2018-01-30T10:29:26.119Z,5.87
2018-01-30T10:31:55.542Z,5.86
2018-01-30T10:34:25.190Z,5.91
2018-01-30T10:36:54.536Z,6.26
2018-01-30T10:39:23.907Z,5.99
2018-01-30T10:41:53.492Z,5.94
2018-01-30T10:44:22.907Z,6.10
2018-01-30T10:46:52.223Z,6.26
2018-01-30T10:49:22.003Z,6.16
2018-01-30T10:51:51.326Z,5.91
2018-01-30T10:54:20.716Z,5.88
2018-01-30T10:56:50.314Z,5.79
2018-01-30T10:59:19.662Z,5.86
2018-01-30T11:01:49.064Z,5.96
2018-01-30T11:04:19.604Z,5.71
2018-01-30T11:06:48.917Z,5.89
2018-01-30T11:09:18.235Z,5.86
2018-01-30T11:11:47.573Z,5.96
2018-01-30T11:14:17.558Z,6.26
2018-01-30T11:16:47.228Z,6.10
2018-01-30T11:19:16.514Z,6.13
2018-01-30T11:21:45.830Z,6.12
2018-01-30T11:24:15.475Z,6.12
2018-01-30T11:26:44.882Z,6.12
2018-01-30T11:29:14.235Z,5.98
2018-01-30T11:31:43.896Z,6.23
2018-01-30T11:34:13.259Z,6.04
2018-01-30T11:36:42.583Z,5.97
2018-01-30T11:39:12.019Z,5.81
2018-01-30T11:41:41.706Z,6.01
2018-01-30T11:44:11.035Z,6.52
2018-01-30T11:46:40.443Z,6.28
2018-01-30T11:49:10.148Z,6.30
2018-01-30T11:51:39.512Z,6.57
2018-01-30T11:54:08.923Z,6.26
2018-01-30T11:56:38.606Z,6.51
2018-01-30T11:59:08.091Z,6.46
2018-01-30T12:01:37.392Z,6.60
2018-01-30T12:04:06.763Z,6.05
2018-01-30T12:06:36.062Z,6.37
2018-01-30T12:09:06.276Z,6.06
2018-01-30T12:11:35.982Z,6.38
2018-01-30T12:14:05.292Z,6.10
2018-01-30T12:16:34.745Z,6.02
2018-01-30T12:19:04.381Z,5.86
2018-01-30T12:21:33.810Z,5.71
2018-01-30T12:24:03.182Z,5.80
2018-01-30T12:26:32.846Z,6.04
2018-01-30T12:29:02.174Z,5.76
2018-01-30T12:31:32.177Z,5.77
2018-01-30T12:34:01.510Z,6.14
2018-01-30T12:36:30.885Z,6.30
2018-01-30T12:39:00.563Z,6.48
2018-01-30T12:41:30.035Z,6.18
2018-01-30T12:43:59.398Z,6.47
2018-01-30T12:46:28.779Z,6.61
2018-01-30T12:48:58.142Z,6.39
2018-01-30T12:51:27.614Z,6.09
2018-01-30T12:53:57.598Z,6.25
2018-01-30T12:56:27.412Z,6.05
2018-01-30T12:58:56.934Z,5.89
2018-01-30T13:01:26.267Z,5.75
2018-01-30T13:03:55.899Z,5.94
2018-01-30T13:06:25.204Z,5.75
2018-01-30T13:08:54.671Z,6.04
2018-01-30T13:11:24.281Z,6.05
2018-01-30T13:13:53.675Z,5.82
2018-01-30T13:16:23.050Z,5.80
2018-01-30T13:18:52.742Z,6.13
2018-01-30T13:21:22.218Z,6.06
2018-01-30T13:23:52.280Z,6.03
2018-01-30T13:26:21.630Z,6.15
2018-01-30T13:28:50.984Z,6.16
2018-01-30T13:31:20.286Z,6.13
2018-01-30T13:33:49.782Z,6.25
2018-01-30T13:36:19.079Z,6.05
2018-01-30T13:38:48.655Z,6.22
2018-01-30T13:41:18.362Z,6.49
2018-01-30T13:43:47.758Z,6.48
2018-01-30T13:46:17.072Z,6.52
2018-01-30T13:48:47.092Z,6.54
2018-01-30T13:51:16.862Z,6.64
2018-01-30T13:53:46.658Z,6.69
2018-01-30T13:56:16.526Z,6.68
2018-01-30T13:58:46.101Z,6.50
2018-01-30T14:01:15.995Z,6.42
2018-01-30T14:03:46.122Z,6.43
2018-01-30T14:06:15.463Z,6.47
2018-01-30T14:08:44.958Z,6.52
2018-01-30T14:11:14.741Z,6.30
2018-01-30T14:13:44.187Z,6.33
2018-01-30T14:16:13.907Z,6.41
2018-01-30T14:18:43.834Z,6.33
2018-01-30T14:21:13.682Z,6.38
2018-01-30T14:23:43.184Z,6.14
2018-01-30T14:26:13.346Z,6.26
2018-01-30T14:28:42.643Z,6.10
2018-01-30T14:31:12.018Z,6.18
2018-01-30T14:33:41.753Z,6.33
2018-01-30T14:36:11.081Z,6.32
2018-01-30T14:38:40.543Z,6.14
2018-01-30T14:41:10.141Z,6.15
2018-01-30T14:43:39.718Z,6.16
2018-01-30T14:46:09.184Z,6.41
2018-01-30T14:48:38.761Z,6.33
2018-01-30T14:51:08.142Z,6.17
2018-01-30T14:53:37.463Z,6.17
2018-01-30T14:56:07.090Z,6.18
2018-01-30T14:58:36.563Z,5.91
2018-01-30T15:01:07.267Z,5.96
2018-01-30T15:03:36.982Z,5.84
2018-01-30T15:06:06.292Z,5.57
2018-01-30T15:08:35.782Z,5.48
2018-01-30T15:11:05.435Z,5.47
2018-01-30T15:13:34.836Z,5.64
2018-01-30T15:16:04.238Z,5.73
2018-01-30T15:18:33.917Z,5.61
2018-01-30T15:21:03.240Z,5.68
2018-01-30T15:23:32.670Z,5.58
2018-01-30T15:26:02.771Z,5.81
2018-01-30T15:28:32.165Z,5.90
2018-01-30T15:31:01.579Z,5.62
2018-01-30T15:33:31.349Z,5.30
2018-01-30T15:36:00.751Z,5.53
2018-01-30T15:38:30.098Z,5.46
2018-01-30T15:40:59.817Z,5.64
2018-01-30T15:43:29.147Z,5.61
2018-01-30T15:45:58.495Z,5.40
2018-01-30T15:48:27.845Z,5.60
2018-01-30T15:50:57.227Z,5.91
2018-01-30T15:53:27.105Z,5.67
2018-01-30T15:55:56.810Z,5.69
2018-01-30T15:58:26.145Z,5.83
2018-01-30T16:00:55.698Z,5.54
2018-01-30T16:03:25.306Z,5.28
2018-01-30T16:05:54.755Z,5.11
2018-01-30T16:08:24.572Z,4.94
2018-01-30T16:10:54.476Z,4.98
2018-01-30T16:13:23.826Z,4.74
2018-01-30T16:15:53.146Z,4.99
2018-01-30T16:18:27.691Z,5.02
2018-01-30T16:20:57.132Z,4.91
2018-01-30T16:23:27.963Z,5.14
2018-01-30T16:26:00.549Z,5.21
2018-01-30T16:28:31.623Z,5.45
2018-01-30T16:31:01.032Z,5.63
2018-01-30T16:33:30.703Z,5.38
2018-01-30T16:36:00.123Z,5.71
2018-01-30T16:38:29.540Z,5.25
2018-01-30T16:40:58.947Z,5.76
2018-01-30T16:43:28.378Z,5.53
2018-01-30T16:45:57.694Z,5.21
2018-01-30T16:48:27.323Z,5.14
2018-01-30T16:50:56.774Z,5.19
2018-01-30T16:53:26.294Z,5.32
2018-01-30T16:55:55.987Z,5.12
2018-01-30T16:58:25.363Z,4.91
2018-01-30T17:00:54.781Z,4.66
2018-01-30T17:05:45.290Z,4.51
2018-01-30T17:08:14.622Z,4.65
2018-01-30T17:10:43.907Z,4.59
2018-01-30T17:13:13.499Z,4.62
2018-01-30T17:15:42.973Z,4.72
2018-01-30T17:18:12.270Z,4.98
2018-01-30T17:20:41.953Z,5.18
2018-01-30T17:23:11.400Z,5.23
2018-01-30T17:25:40.755Z,5.21
2018-01-30T17:28:11.234Z,5.19
2018-01-30T17:30:40.590Z,4.92
2018-01-30T17:33:10.035Z,4.87
2018-01-30T17:35:39.638Z,4.64
2018-01-30T17:38:09.738Z,4.60
2018-01-30T17:40:39.332Z,4.59
2018-01-30T17:43:10.574Z,4.42
2018-01-30T17:45:39.939Z,4.33
2018-01-30T17:48:09.386Z,4.07
2018-01-30T17:50:38.767Z,4.17
2018-01-30T17:53:08.127Z,4.37
2018-01-30T17:55:37.784Z,4.49
2018-01-30T17:58:07.086Z,4.27
2018-01-30T18:00:36.528Z,4.48
2018-01-30T18:03:06.234Z,4.54
2018-01-30T18:05:44.139Z,4.51
2018-01-30T18:08:13.738Z,4.36
2018-01-30T18:10:43.063Z,4.12
2018-01-30T18:13:12.418Z,4.10
2018-01-30T18:15:42.035Z,4.17
2018-01-30T18:18:11.423Z,4.36
2018-01-30T18:20:40.772Z,4.05
2018-01-30T18:23:10.643Z,4.33
2018-01-30T18:25:40.102Z,4.13
2018-01-30T18:28:09.479Z,4.02
2018-01-30T18:30:39.172Z,4.21
2018-01-30T18:33:08.501Z,4.16
2018-01-30T18:35:37.907Z,4.07
2018-01-30T18:38:07.511Z,4.07
2018-01-30T18:40:36.828Z,4.16
2018-01-30T18:43:06.340Z,4.28
2018-01-30T18:45:36.226Z,4.28
2018-01-30T18:48:06.280Z,4.14
2018-01-30T18:50:36.353Z,3.95
2018-01-30T18:53:06.732Z,4.03
2018-01-30T18:55:36.896Z,3.91
2018-01-30T18:58:07.162Z,3.95
2018-01-30T19:00:36.636Z,3.75
2018-01-30T19:03:06.320Z,3.49
2018-01-30T19:05:35.964Z,3.55
2018-01-30T19:08:13.773Z,3.77
2018-01-30T19:10:43.669Z,3.97
2018-01-30T19:13:13.072Z,3.90
2018-01-30T19:15:42.359Z,3.81
2018-01-30T19:18:11.970Z,3.95
2018-01-30T19:20:41.264Z,3.76
2018-01-30T19:23:11.927Z,3.41
2018-01-30T19:25:48.961Z,3.69
2018-01-30T19:28:18.531Z,3.67
2018-01-30T19:30:47.872Z,3.89
2018-01-30T19:33:17.320Z,3.66
2018-01-30T19:35:46.797Z,3.70
2018-01-30T19:38:16.116Z,3.66
2018-01-30T19:40:45.725Z,3.44
2018-01-30T19:43:15.139Z,3.59
2018-01-30T19:45:44.485Z,3.41
2018-01-30T19:48:14.158Z,3.69
2018-01-30T19:50:43.470Z,3.44
2018-01-30T19:53:12.879Z,3.48
2018-01-30T19:55:43.288Z,3.40
2018-01-30T19:58:12.814Z,3.61
2018-01-30T20:00:42.128Z,3.59
2018-01-30T20:03:11.712Z,3.49
2018-01-30T20:05:41.204Z,3.34
2018-01-30T20:08:11.087Z,3.48
2018-01-30T20:10:40.703Z,3.43
2018-01-30T20:13:10.095Z,3.29
2018-01-30T20:15:39.410Z,3.31
2018-01-30T20:18:09.082Z,3.31
2018-01-30T20:20:38.709Z,3.34
2018-01-30T20:23:08.183Z,3.42
2018-01-30T20:25:37.880Z,3.35
2018-01-30T20:28:07.263Z,3.43
2018-01-30T20:30:36.939Z,3.36
2018-01-30T20:33:06.681Z,3.47
2018-01-30T20:35:36.080Z,3.45
2018-01-30T20:38:05.467Z,3.50
2018-01-30T20:40:35.122Z,3.62
2018-01-30T20:43:04.446Z,3.60
2018-01-30T20:45:33.791Z,3.87
2018-01-30T20:48:03.387Z,3.51
2018-01-30T20:50:32.747Z,3.14
2018-01-30T20:53:02.101Z,2.73
2018-01-30T20:55:31.743Z,2.66
2018-01-30T20:58:01.040Z,2.88
2018-01-30T21:00:30.417Z,2.57
2018-01-30T21:03:00.067Z,2.47
2018-01-30T21:05:29.522Z,2.42
2018-01-30T21:07:58.891Z,2.76
2018-01-30T21:10:28.389Z,2.80
2018-01-30T21:12:57.731Z,2.58
2018-01-30T21:15:27.129Z,2.55
2018-01-30T21:17:56.730Z,2.59
2018-01-30T21:20:26.087Z,2.51
2018-01-30T21:22:55.499Z,2.42
2018-01-30T21:25:25.090Z,2.48
2018-01-30T21:27:54.483Z,2.44
2018-01-30T21:30:23.798Z,2.47
2018-01-30T21:32:53.463Z,2.74
2018-01-30T21:35:22.775Z,2.60
2018-01-30T21:37:52.072Z,2.57
2018-01-30T21:40:21.421Z,2.95
2018-01-30T21:42:50.735Z,3.06
2018-01-30T21:45:20.120Z,3.05
2018-01-30T21:47:49.714Z,3.48
2018-01-30T21:50:19.060Z,3.40
2018-01-30T21:52:48.351Z,3.34
2018-01-30T21:55:18.293Z,3.61
2018-01-30T21:57:47.602Z,3.46
2018-01-30T22:00:16.919Z,3.43
2018-01-30T22:02:46.494Z,3.30
2018-01-30T22:05:15.797Z,3.54
2018-01-30T22:07:49.642Z,3.70
2018-01-30T22:10:23.136Z,3.71
2018-01-30T22:12:52.930Z,3.66
2018-01-30T22:15:22.279Z,3.59
2018-01-30T22:17:52.006Z,3.55
2018-01-30T22:20:21.342Z,3.12
2018-01-30T22:22:50.748Z,3.08
2018-01-30T22:25:20.405Z,3.22
2018-01-30T22:27:49.763Z,2.92
2018-01-30T22:30:19.083Z,2.86
2018-01-30T22:32:48.646Z,2.73
2018-01-30T22:35:17.932Z,2.77
2018-01-30T22:37:47.490Z,2.84
2018-01-30T22:40:17.067Z,2.50
2018-01-30T22:42:46.410Z,2.64
2018-01-30T22:45:15.783Z,2.65
